Time;durP1;ratioP1;P1;durP2;ratioP2;P2;SDS_P1;SDS_P2;PMS_P1;PMS_P2;Temp;Humidity;BMP_temperature;BMP_pressure;BME280_temperature;BME280_humidity;BME280_pressure;Samples;Min_cycle;Max_cycle;Signal;HPM_P1;HPM_P2
2022/12/06 04:02:15;;;;;;;;;;;2.30;99.90;;;;;;5386459;22;19934;-72
2022/12/06 04:04:42;;;;;;;;;;;2.30;99.90;;;;;;4991808;28;20028;-71
2022/12/06 04:07:09;;;;;;;;;;;2.40;99.90;;;;;;4987942;28;19978;-72
2022/12/06 04:09:55;;;;;;;;;;;2.40;99.90;;;;;;4988569;28;19926;-72
2022/12/06 04:15:07;;;;;;;;;;;2.40;99.90;;;;;;4990031;28;19969;-72
2022/12/06 04:20:20;;;;;;;;;;;2.40;99.90;;;;;;4983679;28;19992;-72
2022/12/06 04:23:04;;;;;;;;;;;2.40;99.90;;;;;;4988790;28;20003;-71
2022/12/06 04:25:31;;;;;;;;;;;2.50;99.90;;;;;;4985788;28;19922;-72
2022/12/06 04:38:57;;;;;;;;;;;2.40;99.90;;;;;;4984795;28;19922;-70
2022/12/06 04:44:08;;;;;;;;;;;2.40;99.90;;;;;;4990762;28;20016;-72
2022/12/06 04:46:34;;;;;;;;;;;2.40;99.90;;;;;;4992092;28;19976;-72
2022/12/06 04:49:03;;;;;;;;;;;2.40;99.90;;;;;;4986747;28;19930;-72
2022/12/06 04:51:29;;;;;;;;;;;2.40;99.90;;;;;;4988007;28;20024;-72
2022/12/06 04:53:56;;;;;;;;;;;2.40;99.90;;;;;;4987318;28;19932;-73
2022/12/06 04:56:23;;;;;;;;;;;2.50;99.90;;;;;;4985322;28;19925;-71
2022/12/06 04:58:50;;;;;;;;;;;2.50;99.90;;;;;;4988848;28;19945;-69
2022/12/06 05:01:16;;;;;;;;;;;2.40;99.90;;;;;;4983534;28;19926;-74
2022/12/06 05:03:43;;;;;;;;;;;2.50;99.90;;;;;;4991751;28;19937;-72
2022/12/06 05:06:11;;;;;;;;;;;2.40;99.90;;;;;;4988290;28;20408;-71
2022/12/06 05:08:38;;;;;;;;;;;2.50;99.90;;;;;;4985470;28;19929;-72
2022/12/06 05:11:05;;;;;;;;;;;2.50;99.90;;;;;;4983066;28;19988;-72
2022/12/06 05:13:32;;;;;;;;;;;2.50;99.90;;;;;;4984966;28;20442;-72
2022/12/06 05:16:00;;;;;;;;;;;2.50;99.90;;;;;;4987626;28;20363;-72
2022/12/06 05:18:27;;;;;;;;;;;2.50;99.90;;;;;;4984264;28;19978;-72
2022/12/06 05:21:00;;;;;;;;;;;2.50;99.90;;;;;;4987993;28;19926;-73
2022/12/06 05:23:29;;;;;;;;;;;2.50;99.90;;;;;;5000693;28;19926;-72
2022/12/06 05:25:57;;;;;;;;;;;2.50;99.90;;;;;;4987605;28;19925;-72
2022/12/06 05:28:24;;;;;;;;;;;2.50;99.90;;;;;;4986603;28;19926;-74
2022/12/06 05:30:51;;;;;;;;;;;2.50;99.90;;;;;;4983327;28;19926;-72
2022/12/06 05:33:17;;;;;;;;;;;2.60;99.90;;;;;;4988082;28;19926;-71
2022/12/06 05:35:44;;;;;;;;;;;2.60;99.90;;;;;;4987336;28;19932;-74
2022/12/06 05:38:11;;;;;;;;;;;2.60;99.90;;;;;;4987089;28;20409;-71
2022/12/06 05:40:40;;;;;;;;;;;2.50;99.90;;;;;;4984741;28;19926;-73
2022/12/06 05:43:07;;;;;;;;;;;2.50;99.90;;;;;;4987426;28;19926;-72
2022/12/06 05:45:34;;;;;;;;;;;2.60;99.90;;;;;;4983783;28;19981;-71
2022/12/06 05:48:01;;;;;;;;;;;2.60;99.90;;;;;;4988759;28;19929;-72
2022/12/06 05:50:28;;;;;;;;;;;2.60;99.90;;;;;;4986530;28;20289;-71
2022/12/06 05:52:56;;;;;;;;;;;2.60;99.90;;;;;;4987477;28;19926;-72
2022/12/06 05:55:23;;;;;;;;;;;2.70;99.90;;;;;;4983972;28;19953;-70
2022/12/06 05:57:52;;;;;;;;;;;2.60;99.90;;;;;;4990862;28;20297;-70
2022/12/06 06:00:19;;;;;;;;;;;2.60;99.90;;;;;;4985070;28;19933;-70
2022/12/06 06:02:46;;;;;;;;;;;2.60;99.90;;;;;;4984710;28;19976;-71
2022/12/06 06:05:13;;;;;;;;;;;2.70;99.90;;;;;;4989162;28;20347;-71
2022/12/06 06:07:40;;;;;;;;;;;2.70;99.90;;;;;;4984444;28;19930;-74
2022/12/06 06:10:08;;;;;;;;;;;2.70;99.90;;;;;;4982011;28;19930;-72
2022/12/06 06:12:34;;;;;;;;;;;2.70;99.90;;;;;;4983236;28;19930;-74
2022/12/06 06:15:05;;;;;;;;;;;2.70;99.90;;;;;;4985229;28;19930;-72
2022/12/06 06:17:33;;;;;;;;;;;2.70;99.90;;;;;;5004314;28;19934;-72
2022/12/06 06:20:04;;;;;;;;;;;2.70;99.90;;;;;;4988426;28;20300;-71
2022/12/06 06:22:30;;;;;;;;;;;2.70;99.90;;;;;;4985279;28;19930;-73
2022/12/06 06:24:57;;;;;;;;;;;2.70;99.90;;;;;;4986340;28;19933;-72
2022/12/06 06:27:24;;;;;;;;;;;2.70;99.90;;;;;;4986357;28;20363;-73
2022/12/06 06:29:51;;;;;;;;;;;2.80;99.90;;;;;;4986112;28;19929;-73
2022/12/06 06:32:19;;;;;;;;;;;2.80;99.90;;;;;;4986908;28;19926;-73
2022/12/06 06:34:46;;;;;;;;;;;2.80;99.90;;;;;;4986000;28;19925;-74
2022/12/06 06:37:13;;;;;;;;;;;2.80;99.90;;;;;;4988623;28;19925;-73
2022/12/06 06:39:40;;;;;;;;;;;2.80;99.90;;;;;;4981594;28;19949;-73
2022/12/06 06:42:06;;;;;;;;;;;2.80;99.90;;;;;;4981720;28;19933;-74
2022/12/06 06:44:33;;;;;;;;;;;2.80;99.90;;;;;;4991439;28;19926;-73
2022/12/06 06:47:00;;;;;;;;;;;2.90;99.90;;;;;;4986876;28;19927;-71
2022/12/06 06:49:28;;;;;;;;;;;2.90;99.90;;;;;;4982972;28;19968;-73
2022/12/06 06:51:54;;;;;;;;;;;2.90;99.90;;;;;;4986760;28;19933;-75
2022/12/06 06:54:21;;;;;;;;;;;2.90;99.90;;;;;;4986410;28;19980;-74
2022/12/06 06:56:48;;;;;;;;;;;2.90;99.90;;;;;;4980708;28;19933;-72
2022/12/06 06:59:15;;;;;;;;;;;2.90;99.90;;;;;;4993509;28;19934;-72
2022/12/06 07:01:41;;;;;;;;;;;2.90;99.90;;;;;;5001373;28;19933;-73
2022/12/06 07:04:08;;;;;;;;;;;2.90;99.90;;;;;;4992099;28;19933;-72
2022/12/06 07:06:36;;;;;;;;;;;2.90;99.90;;;;;;4986455;28;20347;-72
2022/12/06 07:09:03;;;;;;;;;;;3.00;99.90;;;;;;4983071;28;19925;-73
2022/12/06 07:11:30;;;;;;;;;;;3.00;99.90;;;;;;4986463;28;19930;-72
2022/12/06 07:13:57;;;;;;;;;;;3.00;99.90;;;;;;4985035;28;19936;-72
2022/12/06 07:16:24;;;;;;;;;;;3.00;99.90;;;;;;4986915;28;19929;-72
2022/12/06 07:18:50;;;;;;;;;;;3.00;99.90;;;;;;4986316;28;19929;-72
2022/12/06 07:21:17;;;;;;;;;;;3.00;99.90;;;;;;4990081;28;19941;-71
2022/12/06 07:23:45;;;;;;;;;;;3.00;99.90;;;;;;4984830;28;19926;-73
2022/12/06 07:26:13;;;;;;;;;;;3.00;99.90;;;;;;4986527;28;20475;-72
2022/12/06 07:28:41;;;;;;;;;;;3.00;99.90;;;;;;4985273;28;19925;-72
2022/12/06 07:31:08;;;;;;;;;;;3.00;99.90;;;;;;5005911;28;20393;-71
2022/12/06 07:33:35;;;;;;;;;;;3.10;99.90;;;;;;4985339;28;19926;-73
2022/12/06 07:36:02;;;;;;;;;;;3.10;99.90;;;;;;4987176;28;19933;-72
2022/12/06 07:38:29;;;;;;;;;;;3.10;99.90;;;;;;4988802;28;19925;-72
2022/12/06 07:41:01;;;;;;;;;;;3.10;99.90;;;;;;4993031;28;19929;-74
2022/12/06 07:46:12;;;;;;;;;;;3.10;99.90;;;;;;4992216;28;19922;-72
2022/12/06 07:48:39;;;;;;;;;;;3.10;99.90;;;;;;4988932;28;19925;-72
2022/12/06 07:51:06;;;;;;;;;;;3.20;99.90;;;;;;4990351;28;19925;-73
2022/12/06 07:53:33;;;;;;;;;;;3.20;99.90;;;;;;4985870;28;20397;-72
2022/12/06 07:56:07;;;;;;;;;;;3.20;99.90;;;;;;4992608;28;20470;-73
2022/12/06 07:58:33;;;;;;;;;;;3.20;99.90;;;;;;4986912;28;20037;-72
2022/12/06 08:01:02;;;;;;;;;;;3.20;99.90;;;;;;4990763;28;19934;-73
2022/12/06 08:03:28;;;;;;;;;;;3.20;99.90;;;;;;4992909;28;19930;-72
2022/12/06 08:05:55;;;;;;;;;;;3.30;99.90;;;;;;4984958;28;19930;-73
2022/12/06 08:08:22;;;;;;;;;;;3.30;99.90;;;;;;4991025;28;19936;-73
2022/12/06 08:10:49;;;;;;;;;;;3.30;99.90;;;;;;4987055;28;19926;-73
2022/12/06 08:13:17;;;;;;;;;;;3.30;99.90;;;;;;4990651;28;19934;-72
2022/12/06 08:15:44;;;;;;;;;;;3.40;99.90;;;;;;4987315;28;19933;-74
2022/12/06 08:18:11;;;;;;;;;;;3.40;99.90;;;;;;4992264;28;20312;-72
2022/12/06 08:20:38;;;;;;;;;;;3.40;99.90;;;;;;4987495;28;20324;-73
2022/12/06 08:23:05;;;;;;;;;;;3.40;99.90;;;;;;4992546;28;20447;-72
2022/12/06 08:25:31;;;;;;;;;;;3.40;99.90;;;;;;4988379;28;19930;-72
2022/12/06 08:27:58;;;;;;;;;;;3.40;99.90;;;;;;4988609;28;20309;-72
2022/12/06 08:30:26;;;;;;;;;;;3.40;99.90;;;;;;4985652;28;19929;-73
2022/12/06 08:32:53;;;;;;;;;;;3.40;99.90;;;;;;5000114;28;20416;-73
2022/12/06 08:35:20;;;;;;;;;;;3.50;99.90;;;;;;4985484;28;19930;-72
2022/12/06 08:37:47;;;;;;;;;;;3.50;99.90;;;;;;4988310;28;19956;-73
2022/12/06 08:40:14;;;;;;;;;;;3.50;99.90;;;;;;4989284;28;19934;-73
2022/12/06 08:42:42;;;;;;;;;;;3.50;99.90;;;;;;4982727;28;19925;-73
2022/12/06 08:45:09;;;;;;;;;;;3.60;99.90;;;;;;4986622;28;19930;-73
2022/12/06 08:47:37;;;;;;;;;;;3.60;99.90;;;;;;4989892;28;19929;-74
2022/12/06 08:50:04;;;;;;;;;;;3.60;99.90;;;;;;4985235;28;19938;-74
2022/12/06 08:52:31;;;;;;;;;;;3.70;99.90;;;;;;4985093;28;19932;-74
2022/12/06 08:54:58;;;;;;;;;;;3.70;99.90;;;;;;4986971;28;19925;-75
2022/12/06 08:57:25;;;;;;;;;;;3.70;99.90;;;;;;4986825;28;20298;-74
2022/12/06 08:59:51;;;;;;;;;;;3.80;99.90;;;;;;5003648;28;19926;-71
2022/12/06 09:02:18;;;;;;;;;;;3.80;99.90;;;;;;4982881;28;19925;-75
2022/12/06 09:04:49;;;;;;;;;;;3.80;99.90;;;;;;4989360;28;19930;-75
2022/12/06 09:07:16;;;;;;;;;;;3.80;99.90;;;;;;4983827;28;19926;-73
2022/12/06 09:09:44;;;;;;;;;;;3.80;99.90;;;;;;4984648;28;20004;-74
2022/12/06 09:12:11;;;;;;;;;;;3.90;99.90;;;;;;4986436;28;19965;-75
2022/12/06 09:14:38;;;;;;;;;;;3.90;99.90;;;;;;4982786;28;20357;-73
2022/12/06 09:17:05;;;;;;;;;;;3.90;99.90;;;;;;4987484;28;19972;-73
2022/12/06 09:19:33;;;;;;;;;;;4.00;99.90;;;;;;4992838;28;19929;-73
2022/12/06 09:22:01;;;;;;;;;;;4.00;99.90;;;;;;4991588;28;19973;-73
2022/12/06 09:24:28;;;;;;;;;;;4.00;99.90;;;;;;4987480;28;19930;-74
2022/12/06 09:26:55;;;;;;;;;;;4.10;99.90;;;;;;4984212;28;19930;-73
2022/12/06 09:29:22;;;;;;;;;;;4.10;99.90;;;;;;4986045;28;19988;-73
2022/12/06 09:31:48;;;;;;;;;;;4.20;99.90;;;;;;4988397;28;20460;-73
2022/12/06 09:34:15;;;;;;;;;;;4.30;99.90;;;;;;4985464;28;19926;-72
2022/12/06 09:36:45;;;;;;;;;;;4.30;99.90;;;;;;4985269;28;20395;-74
2022/12/06 09:39:15;;;;;;;;;;;4.30;99.90;;;;;;4991830;28;19934;-73
2022/12/06 09:41:48;;;;;;;;;;;4.30;99.90;;;;;;5001569;28;19925;-73
2022/12/06 09:44:21;;;;;;;;;;;4.30;99.90;;;;;;4983492;28;19983;-74
2022/12/06 09:46:56;;;;;;;;;;;4.40;99.90;;;;;;5018717;28;20406;-72
2022/12/06 09:49:38;;;;;;;;;;;4.40;99.90;;;;;;4987652;28;19926;-74
2022/12/06 09:52:11;;;;;;;;;;;4.50;99.90;;;;;;4985256;28;20331;-73
2022/12/06 09:54:50;;;;;;;;;;;4.60;99.90;;;;;;4987034;28;19926;-73
2022/12/06 09:57:21;;;;;;;;;;;4.60;99.90;;;;;;4990482;28;19934;-73
2022/12/06 09:59:53;;;;;;;;;;;4.70;99.90;;;;;;5004936;28;19932;-73
2022/12/06 10:02:25;;;;;;;;;;;4.70;99.90;;;;;;4989847;28;19926;-73
2022/12/06 10:05:02;;;;;;;;;;;4.80;99.90;;;;;;5005990;28;19925;-72
2022/12/06 10:07:33;;;;;;;;;;;4.80;99.90;;;;;;5003350;28;19992;-72
2022/12/06 10:10:07;;;;;;;;;;;4.80;99.90;;;;;;4983183;28;19933;-72
2022/12/06 10:12:41;;;;;;;;;;;4.90;99.90;;;;;;4997627;28;20341;-73
2022/12/06 10:15:13;;;;;;;;;;;5.00;99.90;;;;;;5002691;28;20451;-72
2022/12/06 10:17:45;;;;;;;;;;;5.20;99.90;;;;;;4985478;28;19926;-73
2022/12/06 10:20:15;;;;;;;;;;;5.30;99.90;;;;;;4986183;28;19926;-73
2022/12/06 10:22:49;;;;;;;;;;;5.40;99.90;;;;;;4983511;28;19925;-73
2022/12/06 10:25:21;;;;;;;;;;;5.60;99.90;;;;;;4984974;28;19933;-73
2022/12/06 10:27:49;;;;;;;;;;;5.50;99.90;;;;;;4995664;28;20400;-73
2022/12/06 10:30:16;;;;;;;;;;;5.70;99.90;;;;;;4978129;28;20384;-73
2022/12/06 10:32:50;;;;;;;;;;;5.60;99.90;;;;;;4984475;28;19937;-73
2022/12/06 10:35:18;;;;;;;;;;;5.70;99.90;;;;;;4984609;28;19927;-74
2022/12/06 10:37:51;;;;;;;;;;;5.70;99.90;;;;;;4985847;28;19930;-73
2022/12/06 10:40:23;;;;;;;;;;;5.80;99.90;;;;;;4984569;28;19926;-73
2022/12/06 10:42:52;;;;;;;;;;;6.10;99.90;;;;;;4996382;28;19934;-73
2022/12/06 10:48:09;;;;;;;;;;;7.10;99.90;;;;;;4987146;28;19921;-75
2022/12/06 10:50:39;;;;;;;;;;;7.70;99.90;;;;;;4983277;28;19972;-74
2022/12/06 10:53:10;;;;;;;;;;;7.70;99.90;;;;;;4983493;28;20004;-73
2022/12/06 10:55:41;;;;;;;;;;;7.50;99.90;;;;;;4988496;28;19937;-74
2022/12/06 10:58:12;;;;;;;;;;;7.40;99.90;;;;;;4993266;28;20341;-74
2022/12/06 11:00:41;;;;;;;;;;;7.10;99.90;;;;;;4981299;28;20464;-73
2022/12/06 11:03:10;;;;;;;;;;;6.70;99.90;;;;;;4985976;28;19953;-74
2022/12/06 11:05:41;;;;;;;;;;;6.50;99.90;;;;;;4985729;28;19929;-74
2022/12/06 11:08:11;;;;;;;;;;;6.40;99.90;;;;;;4987529;28;19926;-76
2022/12/06 11:10:40;;;;;;;;;;;6.30;99.90;;;;;;4983552;28;20396;-73
2022/12/06 11:13:15;;;;;;;;;;;6.30;99.90;;;;;;4996735;28;19930;-73
2022/12/06 11:15:46;;;;;;;;;;;6.20;99.90;;;;;;4991467;28;20301;-73
2022/12/06 11:18:14;;;;;;;;;;;6.20;99.90;;;;;;4991501;28;19937;-71
2022/12/06 11:20:44;;;;;;;;;;;6.10;99.90;;;;;;4988717;28;19933;-73
2022/12/06 11:23:12;;;;;;;;;;;6.10;99.90;;;;;;4980878;28;19933;-73
2022/12/06 11:25:46;;;;;;;;;;;6.10;99.90;;;;;;4993059;28;20363;-73
2022/12/06 11:28:24;;;;;;;;;;;6.10;99.90;;;;;;4983719;28;19927;-73
2022/12/06 11:30:53;;;;;;;;;;;6.20;99.90;;;;;;5000574;28;19933;-73
2022/12/06 11:33:21;;;;;;;;;;;6.20;99.90;;;;;;5000376;28;19930;-73
2022/12/06 11:35:48;;;;;;;;;;;6.30;99.90;;;;;;4987078;28;19949;-74
2022/12/06 11:38:15;;;;;;;;;;;6.30;99.90;;;;;;4988546;28;20437;-72
2022/12/06 11:40:44;;;;;;;;;;;6.40;99.90;;;;;;4987297;28;20461;-73
2022/12/06 11:43:15;;;;;;;;;;;6.50;99.90;;;;;;4989011;28;20431;-74
2022/12/06 11:45:44;;;;;;;;;;;6.50;99.90;;;;;;4984524;28;19980;-73
2022/12/06 11:48:13;;;;;;;;;;;6.50;99.90;;;;;;4987667;28;19930;-73
2022/12/06 11:50:41;;;;;;;;;;;6.50;99.90;;;;;;4987624;28;19934;-74
2022/12/06 11:53:13;;;;;;;;;;;6.50;99.90;;;;;;4989963;28;21813;-74
2022/12/06 11:55:42;;;;;;;;;;;6.50;99.90;;;;;;4997340;28;20172;-73
2022/12/06 11:58:15;;;;;;;;;;;6.40;99.90;;;;;;4995146;28;19930;-73
2022/12/06 12:00:56;;;;;;;;;;;6.30;99.90;;;;;;4987345;28;20431;-74
2022/12/06 12:03:27;;;;;;;;;;;6.30;99.90;;;;;;4997209;28;19929;-74
2022/12/06 12:06:06;;;;;;;;;;;6.20;99.90;;;;;;4984435;28;19961;-73
2022/12/06 12:08:33;;;;;;;;;;;6.30;99.90;;;;;;4985759;28;20372;-75
2022/12/06 12:11:01;;;;;;;;;;;6.30;99.90;;;;;;4996177;28;19980;-73
2022/12/06 12:13:44;;;;;;;;;;;6.30;99.90;;;;;;4993389;28;20444;-74
2022/12/06 12:16:15;;;;;;;;;;;6.30;99.90;;;;;;4989028;28;19926;-73
2022/12/06 12:18:43;;;;;;;;;;;6.30;99.90;;;;;;4989685;28;20032;-73
2022/12/06 12:21:10;;;;;;;;;;;6.20;99.90;;;;;;4986019;28;19925;-74
2022/12/06 12:23:40;;;;;;;;;;;6.20;99.90;;;;;;4998235;28;20282;-73
2022/12/06 12:26:11;;;;;;;;;;;6.20;99.90;;;;;;4989760;28;19926;-73
2022/12/06 12:28:39;;;;;;;;;;;6.20;99.90;;;;;;4985941;28;19933;-72
2022/12/06 12:31:09;;;;;;;;;;;6.10;99.90;;;;;;4988815;28;20340;-73
2022/12/06 12:33:36;;;;;;;;;;;6.10;99.90;;;;;;4989311;28;19929;-75
2022/12/06 12:36:14;;;;;;;;;;;6.20;99.90;;;;;;4983321;28;19932;-73
2022/12/06 12:38:42;;;;;;;;;;;6.10;99.90;;;;;;4995490;28;19958;-74
2022/12/06 12:41:22;;;;;;;;;;;6.10;99.90;;;;;;5005309;28;19933;-74
2022/12/06 12:43:55;;;;;;;;;;;6.10;99.90;;;;;;4993448;28;19926;-72
2022/12/06 12:46:23;;;;;;;;;;;6.10;99.90;;;;;;4989682;28;19925;-73
2022/12/06 12:48:51;;;;;;;;;;;6.20;99.90;;;;;;5001192;28;19926;-72
2022/12/06 12:51:22;;;;;;;;;;;6.20;99.90;;;;;;4984350;28;19926;-72
2022/12/06 12:53:54;;;;;;;;;;;6.30;99.90;;;;;;4997969;28;19926;-74
2022/12/06 12:56:22;;;;;;;;;;;6.50;99.90;;;;;;4987857;28;19926;-76
2022/12/06 12:58:50;;;;;;;;;;;7.50;99.90;;;;;;4984467;28;19926;-71
2022/12/06 13:01:25;;;;;;;;;;;10.10;99.90;;;;;;4983761;28;19993;-72
2022/12/06 13:03:53;;;;;;;;;;;11.10;99.90;;;;;;5004392;28;19976;-72
2022/12/06 13:06:26;;;;;;;;;;;10.30;99.90;;;;;;4982728;28;19926;-72
2022/12/06 13:08:54;;;;;;;;;;;10.20;99.90;;;;;;4987239;28;20385;-70
2022/12/06 13:11:20;;;;;;;;;;;9.60;99.90;;;;;;4989943;28;19934;-73
2022/12/06 13:13:49;;;;;;;;;;;10.90;99.90;;;;;;4987656;28;19933;-72
2022/12/06 13:16:21;;;;;;;;;;;12.80;99.90;;;;;;4986785;28;19934;-74
2022/12/06 13:18:51;;;;;;;;;;;12.00;99.90;;;;;;4985653;28;19937;-72
2022/12/06 13:21:20;;;;;;;;;;;12.90;99.90;;;;;;4989147;28;19930;-75
2022/12/06 13:23:48;;;;;;;;;;;13.00;99.90;;;;;;4983508;28;19934;-75
2022/12/06 13:26:17;;;;;;;;;;;12.30;99.90;;;;;;4987334;28;20360;-73
2022/12/06 13:28:46;;;;;;;;;;;11.00;99.90;;;;;;4999556;28;19926;-73
2022/12/06 13:31:15;;;;;;;;;;;10.40;99.90;;;;;;5001901;28;19926;-75
2022/12/06 13:33:45;;;;;;;;;;;10.10;99.90;;;;;;4991344;28;20392;-74
2022/12/06 13:36:14;;;;;;;;;;;9.60;99.90;;;;;;4991633;28;19925;-73
2022/12/06 13:38:41;;;;;;;;;;;9.00;99.90;;;;;;4991638;28;19929;-73
2022/12/06 13:41:11;;;;;;;;;;;9.70;99.90;;;;;;4991705;28;19934;-74
2022/12/06 13:43:58;;;;;;;;;;;10.70;99.90;;;;;;4986317;28;19926;-74
2022/12/06 13:46:29;;;;;;;;;;;11.00;99.90;;;;;;4991689;28;19926;-74
2022/12/06 13:48:57;;;;;;;;;;;11.00;99.90;;;;;;4991201;28;20293;-73
2022/12/06 13:51:44;;;;;;;;;;;11.90;99.90;;;;;;4991724;28;19929;-73
2022/12/06 13:54:35;;;;;;;;;;;12.90;99.90;;;;;;4991873;28;19926;-73
2022/12/06 13:57:03;;;;;;;;;;;13.90;99.90;;;;;;4992000;28;20452;-74
2022/12/06 13:59:40;;;;;;;;;;;14.20;99.90;;;;;;4989983;28;19933;-74
2022/12/06 14:02:24;;;;;;;;;;;14.00;99.90;;;;;;5000019;28;19934;-73
2022/12/06 14:04:51;;;;;;;;;;;13.10;99.90;;;;;;4971233;28;19934;-73
2022/12/06 14:07:31;;;;;;;;;;;12.00;99.90;;;;;;4991929;28;19969;-72
2022/12/06 14:09:58;;;;;;;;;;;11.20;99.90;;;;;;4991082;28;19926;-73
2022/12/06 14:12:26;;;;;;;;;;;10.20;99.90;;;;;;4991768;28;19935;-72
2022/12/06 14:14:56;;;;;;;;;;;10.10;99.90;;;;;;4991604;28;20384;-73
2022/12/06 14:17:26;;;;;;;;;;;9.90;99.90;;;;;;4983857;28;19926;-73
2022/12/06 14:19:52;;;;;;;;;;;10.00;99.90;;;;;;4985327;28;19925;-74
2022/12/06 14:22:23;;;;;;;;;;;9.70;99.90;;;;;;4991670;28;19925;-73
2022/12/06 14:25:01;;;;;;;;;;;9.20;99.90;;;;;;4991459;28;19933;-73
2022/12/06 14:27:28;;;;;;;;;;;8.90;99.90;;;;;;4984832;28;20020;-72
2022/12/06 14:29:59;;;;;;;;;;;8.70;99.90;;;;;;4990699;28;19926;-73
2022/12/06 14:32:30;;;;;;;;;;;8.40;99.90;;;;;;4979019;28;20015;-73
2022/12/06 14:35:01;;;;;;;;;;;8.10;99.90;;;;;;4987995;28;19934;-73
2022/12/06 14:37:29;;;;;;;;;;;7.80;99.90;;;;;;4991492;28;19926;-73
2022/12/06 14:39:56;;;;;;;;;;;7.60;99.90;;;;;;4982310;28;19930;-72
2022/12/06 14:45:11;;;;;;;;;;;7.20;99.90;;;;;;4981583;28;19926;-73
2022/12/06 14:47:38;;;;;;;;;;;7.00;99.90;;;;;;4998327;28;19930;-74
2022/12/06 14:50:23;;;;;;;;;;;6.90;99.90;;;;;;4992211;28;19926;-73
2022/12/06 14:53:11;;;;;;;;;;;6.80;99.90;;;;;;4995066;28;19926;-72
2022/12/06 14:55:51;;;;;;;;;;;6.70;99.90;;;;;;4984892;28;19930;-73
2022/12/06 14:58:19;;;;;;;;;;;6.60;99.90;;;;;;4983390;28;19930;-71
2022/12/06 15:00:52;;;;;;;;;;;6.50;99.90;;;;;;4990309;28;20304;-73
2022/12/06 15:03:36;;;;;;;;;;;6.40;99.90;;;;;;4987653;28;19933;-71
2022/12/06 15:06:11;;;;;;;;;;;6.30;99.90;;;;;;4985264;28;19930;-73
2022/12/06 15:08:39;;;;;;;;;;;6.20;99.90;;;;;;4988276;28;19926;-73
2022/12/06 15:14:10;;;;;;;;;;;6.10;99.90;;;;;;5009525;28;19929;-71
2022/12/06 15:16:37;;;;;;;;;;;6.00;99.90;;;;;;4981053;28;19973;-71
2022/12/06 15:19:03;;;;;;;;;;;5.90;99.90;;;;;;5000404;28;19925;-72
2022/12/06 15:21:30;;;;;;;;;;;5.80;99.90;;;;;;4994547;28;19926;-73
2022/12/06 15:23:57;;;;;;;;;;;5.70;99.90;;;;;;4994794;28;19933;-73
2022/12/06 15:26:25;;;;;;;;;;;5.60;99.90;;;;;;4991885;28;19932;-72
2022/12/06 15:28:52;;;;;;;;;;;5.60;99.90;;;;;;4990216;28;19965;-73
2022/12/06 15:31:19;;;;;;;;;;;5.40;99.90;;;;;;4986228;28;19925;-72
2022/12/06 15:33:46;;;;;;;;;;;5.40;99.90;;;;;;4994110;28;20348;-71
2022/12/06 15:36:15;;;;;;;;;;;5.30;99.90;;;;;;4986063;28;19933;-73
2022/12/06 15:38:42;;;;;;;;;;;5.30;99.90;;;;;;4993991;28;19984;-73
2022/12/06 15:41:13;;;;;;;;;;;5.30;99.90;;;;;;5000626;28;19925;-73
2022/12/06 15:43:41;;;;;;;;;;;5.30;99.90;;;;;;4991589;28;20463;-73
2022/12/06 15:46:11;;;;;;;;;;;5.20;99.90;;;;;;4992291;28;19925;-72
2022/12/06 15:48:38;;;;;;;;;;;5.20;99.90;;;;;;4991083;28;19925;-74
2022/12/06 15:51:05;;;;;;;;;;;5.20;99.90;;;;;;4993372;28;20389;-72
2022/12/06 15:53:32;;;;;;;;;;;5.20;99.90;;;;;;4986237;28;19958;-71
2022/12/06 15:55:58;;;;;;;;;;;5.10;99.90;;;;;;4991637;28;19926;-72
2022/12/06 15:58:25;;;;;;;;;;;5.10;99.90;;;;;;4980525;28;20015;-71
2022/12/06 16:00:54;;;;;;;;;;;5.10;99.90;;;;;;5005771;28;19930;-70
2022/12/06 16:03:20;;;;;;;;;;;5.10;99.90;;;;;;5001416;28;20413;-71
2022/12/06 16:05:47;;;;;;;;;;;5.10;99.90;;;;;;4987485;28;19949;-72
2022/12/06 16:08:14;;;;;;;;;;;5.10;99.90;;;;;;4982210;28;19926;-72
2022/12/06 16:10:41;;;;;;;;;;;5.00;99.90;;;;;;4989818;28;20256;-72
2022/12/06 16:13:22;;;;;;;;;;;5.00;99.90;;;;;;4988500;28;19929;-72
2022/12/06 16:15:49;;;;;;;;;;;5.00;99.90;;;;;;4992804;28;19930;-71
2022/12/06 16:18:17;;;;;;;;;;;5.00;99.90;;;;;;4983235;28;19926;-71
2022/12/06 16:20:44;;;;;;;;;;;4.90;99.90;;;;;;4988176;28;19933;-71
2022/12/06 16:25:55;;;;;;;;;;;4.90;99.90;;;;;;5001838;28;19926;-74
2022/12/06 16:28:23;;;;;;;;;;;4.90;99.90;;;;;;4987407;28;19929;-72
2022/12/06 16:30:49;;;;;;;;;;;4.90;99.90;;;;;;4990527;28;19929;-72
2022/12/06 16:33:19;;;;;;;;;;;4.80;99.90;;;;;;4987039;28;19927;-73
2022/12/06 16:35:46;;;;;;;;;;;4.80;99.90;;;;;;5002360;28;19926;-72
2022/12/06 16:38:13;;;;;;;;;;;4.70;99.90;;;;;;4990850;28;19926;-70
2022/12/06 16:40:40;;;;;;;;;;;4.70;99.90;;;;;;4999266;28;19962;-72
2022/12/06 16:43:07;;;;;;;;;;;4.60;99.90;;;;;;4991327;28;19930;-71
2022/12/06 16:45:34;;;;;;;;;;;4.60;99.90;;;;;;4991244;28;19930;-70
2022/12/06 16:48:01;;;;;;;;;;;4.60;99.90;;;;;;4984458;28;19960;-72
2022/12/06 16:50:30;;;;;;;;;;;4.60;99.90;;;;;;4984667;28;19992;-72
2022/12/06 16:52:56;;;;;;;;;;;4.60;99.90;;;;;;4991929;28;20344;-71
2022/12/06 16:55:23;;;;;;;;;;;4.50;99.90;;;;;;4987798;28;20294;-72
2022/12/06 16:57:50;;;;;;;;;;;4.50;99.90;;;;;;4991724;28;19926;-72
2022/12/06 17:00:17;;;;;;;;;;;4.50;99.90;;;;;;4991014;28;20463;-72
2022/12/06 17:02:44;;;;;;;;;;;4.50;99.90;;;;;;4990779;28;20396;-72
2022/12/06 17:05:14;;;;;;;;;;;4.50;99.90;;;;;;4985744;28;19980;-71
2022/12/06 17:07:43;;;;;;;;;;;4.50;99.90;;;;;;4990035;28;19961;-72
2022/12/06 17:10:10;;;;;;;;;;;4.50;99.90;;;;;;4981838;28;19926;-74
2022/12/06 17:12:37;;;;;;;;;;;4.40;99.90;;;;;;4999128;28;19926;-76
2022/12/06 17:15:04;;;;;;;;;;;4.40;99.90;;;;;;4991045;28;19930;-74
2022/12/06 17:17:31;;;;;;;;;;;4.40;99.90;;;;;;4987079;28;19926;-74
2022/12/06 17:19:58;;;;;;;;;;;4.40;99.90;;;;;;4987433;28;19926;-74
2022/12/06 17:22:24;;;;;;;;;;;4.40;99.90;;;;;;4985144;28;19926;-73
2022/12/06 17:24:53;;;;;;;;;;;4.30;99.90;;;;;;4989057;28;19996;-74
2022/12/06 17:27:19;;;;;;;;;;;4.30;99.90;;;;;;4985069;28;19926;-72
2022/12/06 17:29:46;;;;;;;;;;;4.30;99.90;;;;;;5003639;28;19926;-72
2022/12/06 17:32:13;;;;;;;;;;;4.30;99.90;;;;;;4989666;28;19992;-72
2022/12/06 17:34:40;;;;;;;;;;;4.30;99.90;;;;;;4987254;28;20356;-71
2022/12/06 17:37:07;;;;;;;;;;;4.30;99.90;;;;;;4987879;28;19926;-72
2022/12/06 17:39:34;;;;;;;;;;;4.30;99.90;;;;;;4984649;28;19925;-71
2022/12/06 17:44:46;;;;;;;;;;;4.30;99.90;;;;;;4988226;28;19930;-72
2022/12/06 17:47:13;;;;;;;;;;;4.30;99.90;;;;;;4986791;28;19996;-71
2022/12/06 17:49:39;;;;;;;;;;;4.40;99.90;;;;;;4989476;28;19926;-73
2022/12/06 17:52:06;;;;;;;;;;;4.40;99.90;;;;;;4983447;28;19930;-71
2022/12/06 17:54:33;;;;;;;;;;;4.40;99.90;;;;;;4990755;28;19926;-71
2022/12/06 17:57:00;;;;;;;;;;;4.40;99.90;;;;;;4983615;28;20452;-74
2022/12/06 17:59:30;;;;;;;;;;;4.40;99.90;;;;;;4990126;28;19926;-70
2022/12/06 18:01:59;;;;;;;;;;;4.40;99.90;;;;;;5003322;28;19926;-71
2022/12/06 18:04:26;;;;;;;;;;;4.40;99.90;;;;;;4986792;28;19976;-71
2022/12/06 18:06:53;;;;;;;;;;;4.40;99.90;;;;;;4985246;28;20332;-73
2022/12/06 18:09:20;;;;;;;;;;;4.40;99.90;;;;;;4983206;28;19936;-70
2022/12/06 18:11:47;;;;;;;;;;;4.40;99.90;;;;;;4982353;28;19926;-73
2022/12/06 18:14:15;;;;;;;;;;;4.40;99.90;;;;;;4985770;28;19926;-72
2022/12/06 18:16:44;;;;;;;;;;;4.40;99.90;;;;;;4981765;28;19926;-71
2022/12/06 18:19:12;;;;;;;;;;;4.40;99.90;;;;;;4987173;28;20032;-75
2022/12/06 18:21:39;;;;;;;;;;;4.40;99.90;;;;;;4986766;28;20579;-73
2022/12/06 18:24:07;;;;;;;;;;;4.40;99.90;;;;;;5000798;28;20016;-72
2022/12/06 18:26:34;;;;;;;;;;;4.40;99.90;;;;;;4982581;28;19929;-73
2022/12/06 18:29:02;;;;;;;;;;;4.40;99.90;;;;;;4984580;28;20397;-73
2022/12/06 18:31:29;;;;;;;;;;;4.40;99.90;;;;;;4987438;28;19930;-71
2022/12/06 18:34:00;;;;;;;;;;;4.40;99.90;;;;;;4997160;28;21523;-71
2022/12/06 18:36:27;;;;;;;;;;;4.40;99.90;;;;;;4987016;28;19972;-72
2022/12/06 18:38:56;;;;;;;;;;;4.50;99.90;;;;;;4985978;28;19925;-72
2022/12/06 18:41:24;;;;;;;;;;;4.60;99.90;;;;;;4990291;28;19980;-72
2022/12/06 18:43:51;;;;;;;;;;;4.60;99.90;;;;;;4983508;28;19949;-70
2022/12/06 18:46:18;;;;;;;;;;;4.60;99.90;;;;;;4985914;28;19925;-71
2022/12/06 18:48:48;;;;;;;;;;;4.60;99.90;;;;;;4984321;28;20452;-72
2022/12/06 18:51:17;;;;;;;;;;;4.60;99.90;;;;;;4988178;28;19934;-72
2022/12/06 18:53:44;;;;;;;;;;;4.60;99.90;;;;;;4990536;28;19926;-71
2022/12/06 18:56:12;;;;;;;;;;;4.60;99.90;;;;;;4989653;28;19981;-72
2022/12/06 18:58:40;;;;;;;;;;;4.60;99.90;;;;;;4989666;28;19926;-72
2022/12/06 19:01:10;;;;;;;;;;;4.60;99.90;;;;;;4983999;28;19980;-69
2022/12/06 19:03:37;;;;;;;;;;;4.60;99.90;;;;;;4984592;28;19937;-71
2022/12/06 19:06:07;;;;;;;;;;;4.60;99.90;;;;;;4983472;28;19933;-72
2022/12/06 19:08:37;;;;;;;;;;;4.60;99.90;;;;;;4983524;28;20215;-71
2022/12/06 19:11:05;;;;;;;;;;;4.60;99.90;;;;;;4982801;28;19933;-72
2022/12/06 19:13:31;;;;;;;;;;;4.60;99.90;;;;;;4983542;28;19949;-72
2022/12/06 19:16:00;;;;;;;;;;;4.60;99.90;;;;;;4986407;28;19930;-72